Private Wetterstation Wechselburg
Wetterdaten: Woche 28.02.11 - 06.03.11 (KW9)
Datum Zeit Temp. +2m Bodentemp. Temp.+5cm Temp. Wind Windchill X Diff Temp. Feuchte +2m Feuchte +5cm Sonnenschein Luftdruck Regen Wind Richtung Sonnenschein UV Taupunkt Windchill Windben
28.02.2011 00:00 1,2 C 2,5 C 0,2 C 0,6 C -0,5 C 0,0 C 87 % 89 % 0 % 1017,7 hPa 0,0 l/m 0,1 km/h (0 Bft) N 0,00 h 0,0 UV-I -0,7 C -0,5 C 0,0 km/h (0 Bft)
28.02.2011 01:00 0,2 C 2,4 C -0,9 C -0,6 C -2,2 C 0,0 C 87 % 90 % 0 % 1017,8 hPa 0,0 l/m 0,0 km/h (0 Bft) N 0,00 h 0,0 UV-I -1,6 C -2,2 C 0,0 km/h (0 Bft)
28.02.2011 02:00 -0,5 C 2,4 C -1,6 C -1,3 C -2,9 C 0,0 C 88 % 91 % 0 % 1018,4 hPa 0,0 l/m 0,0 km/h (0 Bft) N 0,00 h 0,0 UV-I -2,3 C -2,9 C 0,0 km/h (0 Bft)
28.02.2011 03:00 -1,0 C 2,4 C -2,0 C -1,8 C -3,4 C 0,0 C 88 % 91 % 0 % 1018,8 hPa 0,0 l/m 0,0 km/h (0 Bft) N 0,00 h 0,0 UV-I -2,8 C -3,4 C 0,0 km/h (0 Bft)
28.02.2011 04:00 -1,4 C 2,5 C -2,3 C -2,1 C -3,5 C 0,0 C 89 % 91 % 0 % 1019,3 hPa 0,0 l/m 0,0 km/h (0 Bft) N 0,00 h 0,0 UV-I -3,0 C -3,5 C 0,0 km/h (0 Bft)
28.02.2011 05:00 -1,7 C 2,6 C -2,5 C -2,4 C -3,7 C 0,0 C 89 % 91 % 0 % 1019,9 hPa 0,0 l/m 0,0 km/h (0 Bft) N 0,00 h 0,0 UV-I -3,2 C -3,7 C 0,0 km/h (0 Bft)
28.02.2011 06:00 -1,6 C 2,6 C -2,2 C -2,1 C -3,3 C 0,0 C 89 % 92 % 0 % 1020,2 hPa 0,0 l/m 0,0 km/h (0 Bft) N 0,00 h 0,0 UV-I -3,1 C -3,3 C 0,0 km/h (0 Bft)
28.02.2011 07:00 -1,8 C 2,6 C -2,4 C -2,3 C -3,5 C 0,0 C 89 % 91 % 0 % 1021,1 hPa 0,0 l/m 0,0 km/h (0 Bft) N 0,00 h 0,0 UV-I -3,3 C -3,5 C 0,0 km/h (0 Bft)
28.02.2011 08:00 -0,8 C 2,7 C -1,0 C -1,0 C -1,4 C 0,0 C 89 % 91 % 0 % 1021,9 hPa 0,0 l/m 0,0 km/h (0 Bft) N 0,00 h 0,0 UV-I -2,4 C -1,4 C 0,0 km/h (0 Bft)
28.02.2011 09:00 0,6 C 2,6 C 0,1 C 0,9 C 0,9 C 0,3 C 89 % 91 % 8 % 1022,3 hPa 0,0 l/m 0,3 km/h (0 Bft) N-NO 0,00 h 0,1 UV-I -1,0 C 0,9 C 0,4 km/h (0 Bft)
28.02.2011 10:00 2,9 C 2,4 C 2,3 C 5,7 C 5,7 C 2,8 C 87 % 90 % 75 % 1022,8 hPa 0,0 l/m 1,5 km/h (1 Bft) W-SW 0,25 h 0,3 UV-I 0,9 C 5,7 C 3,2 km/h (1 Bft)
28.02.2011 11:00 4,8 C 2,3 C 4,3 C 9,5 C 9,5 C 4,7 C 81 % 83 % 98 % 1023,5 hPa 0,0 l/m 3,9 km/h (1 Bft) W-SW 0,92 h 0,5 UV-I 1,8 C 9,5 C 5,5 km/h (1 Bft)
28.02.2011 12:00 6,0 C 2,3 C 5,6 C 13,3 C 13,3 C 7,3 C 77 % 79 % 100 % 1023,6 hPa 0,0 l/m 4,3 km/h (1 Bft) W-SW 1,00 h 0,7 UV-I 2,3 C 13,3 C 5,5 km/h (1 Bft)
28.02.2011 13:00 6,8 C 2,3 C 6,5 C 15,0 C 15,0 C 8,1 C 75 % 77 % 100 % 1023,7 hPa 0,0 l/m 3,8 km/h (1 Bft) W-SW 1,00 h 0,7 UV-I 2,7 C 15,0 C 3,6 km/h (1 Bft)
28.02.2011 14:00 7,4 C 2,4 C 9,0 C 16,0 C 16,0 C 8,6 C 72 % 68 % 100 % 1023,3 hPa 0,0 l/m 3,5 km/h (1 Bft) W-SW 1,00 h 0,4 UV-I 2,8 C 16,0 C 4,2 km/h (1 Bft)
28.02.2011 15:00 7,8 C 2,4 C 10,7 C 14,5 C 14,5 C 6,7 C 70 % 60 % 100 % 1023,3 hPa 0,0 l/m 6,0 km/h (2 Bft) W-SW 1,00 h 0,2 UV-I 2,7 C 14,5 C 7,6 km/h (2 Bft)
28.02.2011 16:00 7,5 C 2,5 C 7,5 C 12,9 C 12,9 C 5,4 C 70 % 70 % 100 % 1023,7 hPa 0,0 l/m 4,3 km/h (1 Bft) W-SW 1,00 h 0,1 UV-I 2,5 C 12,9 C 4,9 km/h (1 Bft)
28.02.2011 17:00 6,4 C 2,6 C 5,8 C 8,0 C 7,9 C 1,7 C 73 % 75 % 43 % 1023,9 hPa 0,0 l/m 1,8 km/h (1 Bft) SW 0,67 h 0,0 UV-I 1,9 C 7,9 C 1,9 km/h (1 Bft)
28.02.2011 18:00 4,8 C 2,8 C 3,4 C 4,2 C 3,0 C 0,0 C 77 % 81 % 0 % 1024,5 hPa 0,0 l/m 0,1 km/h (0 Bft) N 0,00 h 0,0 UV-I 1,1 C 3,0 C 0,1 km/h (0 Bft)
28.02.2011 19:00 3,6 C 3,0 C 1,9 C 2,9 C 1,4 C 0,0 C 80 % 84 % 0 % 1024,7 hPa 0,0 l/m 0,0 km/h (0 Bft) N 0,00 h 0,0 UV-I 0,4 C 1,4 C 0,3 km/h (0 Bft)
28.02.2011 20:00 1,9 C 3,2 C 0,3 C 1,0 C -0,9 C 0,0 C 82 % 87 % 0 % 1024,8 hPa 0,0 l/m 0,0 km/h (0 Bft) N 0,00 h 0,0 UV-I -0,9 C -0,9 C 0,2 km/h (0 Bft)
28.02.2011 21:00 0,9 C 3,1 C -0,7 C -0,1 C -2,3 C 0,0 C 84 % 88 % 0 % 1026,2 hPa 0,0 l/m 0,0 km/h (0 Bft) N 0,00 h 0,0 UV-I -1,5 C -2,3 C 0,0 km/h (0 Bft)
28.02.2011 22:00 0,1 C 3,2 C -1,3 C -0,8 C -2,7 C 0,0 C 85 % 89 % 0 % 1026,6 hPa 0,0 l/m 0,0 km/h (0 Bft) N 0,00 h 0,0 UV-I -2,0 C -2,7 C 0,0 km/h (0 Bft)
28.02.2011 23:00 -0,4 C 3,2 C -1,7 C -1,3 C -3,0 C 0,0 C 86 % 90 % 0 % 1026,7 hPa 0,0 l/m 0,0 km/h (0 Bft) N 0,00 h 0,0 UV-I -2,5 C -3,0 C 0,0 km/h (0 Bft)
01.03.2011 00:00 -0,8 C 3,3 C -2,0 C -1,7 C -3,4 C 0,0 C 87 % 90 % 0 % 1027,6 hPa 0,0 l/m 0,1 km/h (0 Bft) N 0,00 h 0,0 UV-I -2,8 C -3,4 C 0,1 km/h (0 Bft)
01.03.2011 01:00 -0,7 C 3,3 C -1,7 C -1,3 C -2,5 C 0,0 C 89 % 91 % 0 % 1027,7 hPa 0,0 l/m 0,2 km/h (0 Bft) N 0,00 h 0,0 UV-I -2,3 C -2,5 C 0,8 km/h (0 Bft)
01.03.2011 02:00 -0,6 C 3,3 C -1,1 C -1,1 C -2,1 C 0,0 C 89 % 92 % 0 % 1027,9 hPa 0,0 l/m 1,4 km/h (1 Bft) SW 0,00 h 0,0 UV-I -2,1 C -2,1 C 2,1 km/h (1 Bft)
01.03.2011 03:00 -1,0 C 3,4 C -1,5 C -1,6 C -2,7 C 0,0 C 90 % 92 % 0 % 1028,1 hPa 0,0 l/m 0,5 km/h (0 Bft) SW 0,00 h 0,0 UV-I -2,5 C -2,7 C 0,7 km/h (0 Bft)
01.03.2011 04:00 -1,4 C 3,4 C -1,8 C -2,0 C -3,4 C 0,0 C 90 % 91 % 0 % 1028,0 hPa 0,0 l/m 0,1 km/h (0 Bft) N 0,00 h 0,0 UV-I -2,8 C -3,4 C 0,4 km/h (0 Bft)
01.03.2011 05:00 -1,7 C 3,4 C -2,2 C -2,4 C -3,6 C 0,0 C 90 % 91 % 0 % 1027,8 hPa 0,0 l/m 0,4 km/h (0 Bft) SW 0,00 h 0,0 UV-I -3,2 C -3,6 C 0,9 km/h (0 Bft)
01.03.2011 06:00 -2,0 C 3,5 C -2,3 C -2,6 C -3,8 C 0,0 C 90 % 91 % 0 % 1028,9 hPa 0,0 l/m 0,8 km/h (0 Bft) W-SW 0,00 h 0,0 UV-I -3,5 C -3,8 C 1,2 km/h (1 Bft)
01.03.2011 07:00 -1,9 C 3,6 C -2,1 C -2,6 C -3,9 C 0,0 C 89 % 91 % 0 % 1029,2 hPa 0,0 l/m 3,4 km/h (1 Bft) W-SW 0,00 h 0,0 UV-I -3,5 C -4,6 C 4,1 km/h (1 Bft)
01.03.2011 08:00 -1,7 C 3,7 C -2,0 C -2,6 C -4,5 C 0,0 C 88 % 89 % 0 % 1029,9 hPa 0,0 l/m 4,9 km/h (1 Bft) W-SW 0,00 h 0,0 UV-I -3,5 C -6,1 C 5,5 km/h (1 Bft)
01.03.2011 09:00 -1,5 C 3,8 C -1,8 C -1,9 C -2,9 C 0,0 C 87 % 89 % 0 % 1030,2 hPa 0,0 l/m 2,9 km/h (1 Bft) SW 0,00 h 0,0 UV-I -3,4 C -2,9 C 4,1 km/h (1 Bft)
01.03.2011 10:00 -0,8 C 3,7 C -1,3 C -1,2 C -1,8 C 0,0 C 86 % 88 % 0 % 1030,8 hPa 0,0 l/m 2,5 km/h (1 Bft) SW 0,00 h 0,1 UV-I -3,0 C -1,8 C 2,9 km/h (1 Bft)
01.03.2011 11:00 -0,4 C 3,7 C -0,7 C -0,7 C -1,5 C 0,0 C 85 % 88 % 0 % 1031,6 hPa 0,0 l/m 3,1 km/h (1 Bft) SW 0,00 h 0,2 UV-I -2,6 C -1,5 C 3,7 km/h (1 Bft)
01.03.2011 12:00 0,4 C 3,6 C -0,0 C 0,3 C -0,2 C 0,1 C 84 % 87 % 3 % 1031,9 hPa 0,0 l/m 3,7 km/h (1 Bft) W-SW 0,00 h 0,4 UV-I -2,0 C -0,4 C 3,6 km/h (1 Bft)
01.03.2011 13:00 1,1 C 3,4 C 1,0 C 4,6 C 4,6 C 3,5 C 83 % 85 % 65 % 1031,8 hPa 0,0 l/m 3,1 km/h (1 Bft) W-SW 0,58 h 0,5 UV-I -1,5 C 4,2 C 3,3 km/h (1 Bft)
01.03.2011 14:00 2,7 C 3,4 C 4,6 C 10,3 C 10,3 C 7,7 C 81 % 76 % 100 % 1031,7 hPa 0,0 l/m 2,5 km/h (1 Bft) SW 1,00 h 0,4 UV-I -0,3 C 10,3 C 3,2 km/h (1 Bft)
01.03.2011 15:00 4,1 C 3,4 C 6,9 C 10,4 C 10,4 C 6,3 C 74 % 64 % 100 % 1031,4 hPa 0,0 l/m 4,6 km/h (1 Bft) SW 1,00 h 0,2 UV-I -0,2 C 10,4 C 5,0 km/h (1 Bft)
01.03.2011 16:00 4,1 C 3,4 C 4,2 C 9,0 C 9,0 C 4,9 C 72 % 71 % 100 % 1031,4 hPa 0,0 l/m 2,4 km/h (1 Bft) S 1,00 h 0,1 UV-I -0,4 C 9,0 C 2,7 km/h (1 Bft)
01.03.2011 17:00 3,3 C 3,4 C 3,0 C 4,7 C 4,5 C 1,5 C 74 % 75 % 39 % 1031,8 hPa 0,0 l/m 2,2 km/h (1 Bft) SW 0,58 h 0,0 UV-I -0,9 C 4,5 C 2,7 km/h (1 Bft)
01.03.2011 18:00 2,5 C 3,5 C 2,0 C 1,8 C 0,3 C 0,0 C 75 % 77 % 0 % 1032,2 hPa 0,0 l/m 3,3 km/h (1 Bft) SW 0,00 h 0,0 UV-I -1,6 C 0,3 C 3,8 km/h (1 Bft)
01.03.2011 19:00 1,7 C 3,5 C 1,1 C 0,9 C -0,5 C 0,0 C 75 % 78 % 0 % 1032,5 hPa 0,0 l/m 1,5 km/h (1 Bft) W-SW 0,00 h 0,0 UV-I -2,2 C -0,5 C 2,1 km/h (1 Bft)
01.03.2011 20:00 1,0 C 3,4 C 0,4 C 0,3 C -1,2 C 0,0 C 76 % 79 % 0 % 1032,9 hPa 0,0 l/m 1,1 km/h (0 Bft) W-SW 0,00 h 0,0 UV-I -2,7 C -1,2 C 1,1 km/h (1 Bft)
01.03.2011 21:00 0,5 C 3,5 C -0,3 C -0,3 C -2,0 C 0,0 C 77 % 81 % 0 % 1032,9 hPa 0,0 l/m 0,5 km/h (0 Bft) SW 0,00 h 0,0 UV-I -3,0 C -2,0 C 0,9 km/h (0 Bft)
01.03.2011 22:00 -0,0 C 3,5 C -0,6 C -0,8 C -2,4 C 0,0 C 79 % 82 % 0 % 1033,3 hPa 0,0 l/m 2,4 km/h (1 Bft) W-SW 0,00 h 0,0 UV-I -3,2 C -2,4 C 2,8 km/h (1 Bft)
01.03.2011 23:00 -0,8 C 3,6 C -1,4 C -1,6 C -3,5 C 0,0 C 80 % 83 % 0 % 1033,7 hPa 0,0 l/m 0,8 km/h (0 Bft) W-SW 0,00 h 0,0 UV-I -3,7 C -3,5 C 0,9 km/h (0 Bft)
02.03.2011 00:00 -1,4 C 3,7 C -2,1 C -2,3 C -4,1 C 0,0 C 82 % 85 % 0 % 1033,7 hPa 0,0 l/m 0,3 km/h (0 Bft) SW 0,00 h 0,0 UV-I -4,0 C -4,1 C 0,6 km/h (0 Bft)
02.03.2011 01:00 -1,7 C 3,7 C -2,2 C -2,5 C -4,2 C 0,0 C 83 % 86 % 0 % 1033,6 hPa 0,0 l/m 1,4 km/h (1 Bft) SW 0,00 h 0,0 UV-I -4,2 C -4,2 C 2,1 km/h (1 Bft)
02.03.2011 02:00 -2,0 C 3,7 C -2,4 C -2,8 C -4,5 C 0,0 C 83 % 86 % 0 % 1033,5 hPa 0,0 l/m 0,7 km/h (0 Bft) S 0,00 h 0,0 UV-I -4,5 C -4,5 C 0,6 km/h (0 Bft)
02.03.2011 03:00 -2,3 C 3,7 C -2,6 C -3,1 C -4,7 C 0,0 C 84 % 86 % 0 % 1033,2 hPa 0,0 l/m 1,4 km/h (1 Bft) SW 0,00 h 0,0 UV-I -4,6 C -4,7 C 1,7 km/h (1 Bft)
02.03.2011 04:00 -2,7 C 3,7 C -3,0 C -3,5 C -5,0 C 0,0 C 85 % 87 % 0 % 1032,8 hPa 0,0 l/m 0,6 km/h (0 Bft) SW 0,00 h 0,0 UV-I -4,9 C -5,0 C 0,8 km/h (0 Bft)
02.03.2011 05:00 -3,2 C 3,7 C -3,6 C -4,0 C -5,6 C 0,0 C 86 % 88 % 0 % 1032,9 hPa 0,0 l/m 0,5 km/h (0 Bft) SW 0,00 h 0,0 UV-I -5,2 C -5,6 C 1,0 km/h (0 Bft)
02.03.2011 06:00 -3,4 C 3,7 C -3,7 C -4,1 C -5,6 C 0,0 C 87 % 88 % 0 % 1032,9 hPa 0,0 l/m 0,6 km/h (0 Bft) N 0,00 h 0,0 UV-I -5,3 C -5,6 C 1,0 km/h (0 Bft)
02.03.2011 07:00 -3,3 C 3,7 C -3,6 C -3,9 C -5,1 C 0,0 C 87 % 88 % 0 % 1033,0 hPa 0,0 l/m 0,7 km/h (0 Bft) S-SO 0,00 h 0,0 UV-I -5,2 C -5,1 C 1,5 km/h (1 Bft)
02.03.2011 08:00 -2,3 C 3,5 C -2,1 C -2,6 C -3,2 C 0,0 C 85 % 86 % 0 % 1033,1 hPa 0,0 l/m 2,0 km/h (1 Bft) S 0,00 h 0,0 UV-I -4,5 C -3,2 C 2,7 km/h (1 Bft)
02.03.2011 09:00 -1,0 C 3,2 C -1,3 C -1,2 C -1,8 C 0,1 C 81 % 82 % 3 % 1033,0 hPa 0,0 l/m 2,7 km/h (1 Bft) SW 0,00 h 0,1 UV-I -3,9 C -1,8 C 3,3 km/h (1 Bft)
02.03.2011 10:00 0,9 C 3,2 C 0,5 C 1,2 C 0,9 C 0,5 C 71 % 73 % 12 % 1032,7 hPa 0,0 l/m 5,2 km/h (1 Bft) SW 0,00 h 0,3 UV-I -3,8 C -0,2 C 6,5 km/h (2 Bft)
02.03.2011 11:00 2,2 C 3,1 C 1,7 C 5,5 C 5,5 C 3,3 C 65 % 68 % 75 % 1032,7 hPa 0,0 l/m 5,1 km/h (1 Bft) SW 0,50 h 0,5 UV-I -3,6 C 4,7 C 7,3 km/h (2 Bft)
02.03.2011 12:00 3,3 C 3,1 C 2,9 C 8,6 C 8,3 C 5,3 C 60 % 62 % 100 % 1032,7 hPa 0,0 l/m 7,3 km/h (2 Bft) W-SW 1,00 h 0,8 UV-I -3,6 C 7,2 C 8,1 km/h (2 Bft)
02.03.2011 13:00 4,9 C 3,1 C 4,5 C 10,5 C 10,3 C 5,6 C 46 % 48 % 100 % 1032,2 hPa 0,0 l/m 8,6 km/h (2 Bft) W-SW 1,00 h 0,7 UV-I -5,7 C 9,9 C 9,6 km/h (2 Bft)
02.03.2011 14:00 5,8 C 3,1 C 7,1 C 10,8 C 10,5 C 5,0 C 44 % 42 % 100 % 1032,1 hPa 0,0 l/m 10,5 km/h (2 Bft) W-SW 1,00 h 0,4 UV-I -5,6 C 10,3 C 13,5 km/h (3 Bft)
02.03.2011 15:00 5,9 C 3,1 C 8,1 C 9,9 C 9,3 C 4,0 C 41 % 37 % 97 % 1031,8 hPa 0,0 l/m 11,9 km/h (2 Bft) SW 1,00 h 0,2 UV-I -6,3 C 7,6 C 13,6 km/h (3 Bft)
02.03.2011 16:00 5,6 C 3,0 C 5,3 C 8,8 C 8,4 C 3,2 C 43 % 44 % 83 % 1031,5 hPa 0,0 l/m 9,7 km/h (2 Bft) SW 1,00 h 0,1 UV-I -6,1 C 6,7 C 11,5 km/h (2 Bft)
02.03.2011 17:00 4,6 C 3,0 C 4,3 C 5,4 C 4,8 C 1,0 C 47 % 49 % 25 % 1031,7 hPa 0,0 l/m 6,8 km/h (2 Bft) SW 0,50 h 0,0 UV-I -5,8 C 3,3 C 7,5 km/h (2 Bft)
02.03.2011 18:00 3,6 C 3,1 C 3,2 C 2,6 C -0,1 C 0,0 C 50 % 52 % 0 % 1031,9 hPa 0,0 l/m 9,6 km/h (2 Bft) SW 0,00 h 0,0 UV-I -5,9 C -3,3 C 12,5 km/h (3 Bft)
02.03.2011 19:00 2,9 C 3,1 C 2,5 C 1,8 C -1,6 C 0,0 C 52 % 54 % 0 % 1031,9 hPa 0,0 l/m 12,5 km/h (3 Bft) W-SW 0,00 h 0,0 UV-I -6,0 C -5,8 C 16,1 km/h (3 Bft)
02.03.2011 20:00 2,2 C 3,1 C 1,8 C 0,9 C -2,5 C 0,0 C 57 % 60 % 0 % 1032,2 hPa 0,0 l/m 12,6 km/h (3 Bft) W-SW 0,00 h 0,0 UV-I -5,4 C -6,9 C 13,7 km/h (3 Bft)
02.03.2011 21:00 1,5 C 3,1 C 1,1 C 0,2 C -3,2 C 0,0 C 62 % 64 % 0 % 1032,4 hPa 0,0 l/m 11,3 km/h (2 Bft) SW 0,00 h 0,0 UV-I -5,1 C -7,4 C 13,1 km/h (3 Bft)
02.03.2011 22:00 0,5 C 3,1 C 0,1 C -0,5 C -2,7 C 0,0 C 66 % 68 % 0 % 1032,4 hPa 0,0 l/m 3,9 km/h (1 Bft) SW 0,00 h 0,0 UV-I -5,1 C -4,0 C 3,8 km/h (1 Bft)
02.03.2011 23:00 -0,6 C 3,2 C -1,2 C -1,6 C -3,6 C 0,0 C 69 % 73 % 0 % 1032,1 hPa 0,0 l/m 1,6 km/h (1 Bft) SW 0,00 h 0,0 UV-I -5,5 C -3,6 C 2,2 km/h (1 Bft)
03.03.2011 00:00 -0,8 C 3,2 C -1,2 C -1,9 C -4,2 C 0,0 C 70 % 73 % 0 % 1031,3 hPa 0,0 l/m 4,2 km/h (1 Bft) SW 0,00 h 0,0 UV-I -5,5 C -5,0 C 5,3 km/h (1 Bft)
03.03.2011 01:00 -1,2 C 3,2 C -1,5 C -2,2 C -4,1 C 0,0 C 71 % 74 % 0 % 1031,2 hPa 0,0 l/m 3,2 km/h (1 Bft) SW 0,00 h 0,0 UV-I -5,8 C -4,8 C 3,8 km/h (1 Bft)
03.03.2011 02:00 -1,4 C 3,2 C -1,6 C -1,9 C -2,9 C 0,0 C 72 % 75 % 0 % 1031,1 hPa 0,0 l/m 2,2 km/h (1 Bft) SW 0,00 h 0,0 UV-I -5,7 C -2,9 C 2,8 km/h (1 Bft)
03.03.2011 03:00 -1,6 C 3,2 C -2,0 C -2,3 C -3,8 C 0,0 C 74 % 76 % 0 % 1030,3 hPa 0,0 l/m 0,8 km/h (0 Bft) SW 0,00 h 0,0 UV-I -5,7 C -3,8 C 1,2 km/h (1 Bft)
03.03.2011 04:00 -2,1 C 3,2 C -2,5 C -2,9 C -4,5 C 0,0 C 75 % 78 % 0 % 1029,5 hPa 0,0 l/m 1,7 km/h (1 Bft) SW 0,00 h 0,0 UV-I -5,9 C -4,5 C 1,8 km/h (1 Bft)
03.03.2011 05:00 -2,7 C 3,3 C -2,9 C -3,7 C -5,7 C 0,0 C 78 % 81 % 0 % 1029,6 hPa 0,0 l/m 2,7 km/h (1 Bft) SW 0,00 h 0,0 UV-I -6,0 C -5,7 C 3,5 km/h (1 Bft)
03.03.2011 06:00 -3,1 C 3,4 C -3,2 C -3,9 C -5,7 C 0,0 C 79 % 82 % 0 % 1029,4 hPa 0,0 l/m 2,1 km/h (1 Bft) W-SW 0,00 h 0,0 UV-I -6,1 C -5,7 C 2,2 km/h (1 Bft)
03.03.2011 07:00 -3,2 C 3,4 C -3,2 C -3,9 C -5,3 C 0,0 C 80 % 82 % 0 % 1029,7 hPa 0,0 l/m 0,8 km/h (0 Bft) SW 0,00 h 0,0 UV-I -6,1 C -5,3 C 1,2 km/h (1 Bft)
03.03.2011 08:00 -2,1 C 3,3 C -3,2 C -2,2 C -2,4 C 0,0 C 79 % 82 % 1 % 1029,6 hPa 0,0 l/m 1,2 km/h (1 Bft) S-SW 0,00 h 0,0 UV-I -5,2 C -2,4 C 1,6 km/h (1 Bft)
03.03.2011 09:00 -0,9 C 3,1 C -3,2 C -0,6 C -0,6 C 0,3 C 77 % 82 % 9 % 1029,4 hPa 0,0 l/m 1,2 km/h (1 Bft) SW 0,00 h 0,1 UV-I -4,4 C -0,6 C 1,9 km/h (1 Bft)
03.03.2011 10:00 0,8 C 3,1 C -3,2 C 2,1 C 2,1 C 1,3 C 72 % 82 % 35 % 1029,7 hPa 0,0 l/m 3,4 km/h (1 Bft) W-SW 0,00 h 0,4 UV-I -3,6 C 2,1 C 5,0 km/h (1 Bft)
03.03.2011 11:00 2,0 C 3,1 C 1,2 C 6,0 C 6,0 C 4,0 C 68 % 71 % 88 % 1029,8 hPa 0,0 l/m 3,7 km/h (1 Bft) S-SO 0,58 h 0,5 UV-I -3,2 C 6,0 C 4,6 km/h (1 Bft)
03.03.2011 12:00 3,1 C 3,1 C 2,7 C 9,5 C 9,5 C 6,3 C 66 % 68 % 100 % 1030,2 hPa 0,0 l/m 4,1 km/h (1 Bft) W-SW 1,00 h 0,7 UV-I -2,6 C 9,4 C 5,1 km/h (1 Bft)
03.03.2011 13:00 3,7 C 3,1 C 3,4 C 9,9 C 9,9 C 6,2 C 64 % 66 % 100 % 1030,0 hPa 0,0 l/m 4,7 km/h (1 Bft) SW 1,00 h 0,6 UV-I -2,5 C 9,7 C 5,9 km/h (2 Bft)
03.03.2011 14:00 4,3 C 3,1 C 5,7 C 10,2 C 10,2 C 5,9 C 62 % 59 % 100 % 1029,4 hPa 0,0 l/m 5,3 km/h (1 Bft) W-SW 1,00 h 0,4 UV-I -2,3 C 10,0 C 7,4 km/h (2 Bft)
03.03.2011 15:00 4,8 C 3,1 C 7,0 C 9,5 C 9,4 C 4,7 C 60 % 53 % 100 % 1029,1 hPa 0,0 l/m 6,2 km/h (2 Bft) SW 1,00 h 0,2 UV-I -2,3 C 8,8 C 7,1 km/h (2 Bft)
03.03.2011 16:00 4,5 C 3,1 C 4,5 C 6,2 C 6,2 C 1,8 C 60 % 59 % 47 % 1028,7 hPa 0,0 l/m 6,1 km/h (2 Bft) W-SW 0,25 h 0,1 UV-I -2,7 C 5,1 C 8,0 km/h (2 Bft)
03.03.2011 17:00 3,4 C 3,1 C 3,0 C 2,8 C 1,6 C 0,0 C 60 % 62 % 0 % 1028,7 hPa 0,0 l/m 6,0 km/h (2 Bft) SW 0,00 h 0,0 UV-I -3,7 C 0,2 C 6,7 km/h (2 Bft)
03.03.2011 18:00 2,3 C 3,1 C 1,7 C 1,5 C -0,1 C 0,0 C 62 % 65 % 0 % 1029,9 hPa 0,0 l/m 3,5 km/h (1 Bft) SW 0,00 h 0,0 UV-I -4,2 C -0,2 C 3,9 km/h (1 Bft)
03.03.2011 19:00 0,9 C 3,1 C -0,2 C 0,1 C -1,6 C 0,0 C 68 % 71 % 0 % 1030,1 hPa 0,0 l/m 0,1 km/h (0 Bft) N 0,00 h 0,0 UV-I -4,3 C -1,6 C 0,0 km/h (0 Bft)
03.03.2011 20:00 -0,1 C 3,3 C -1,3 C -1,1 C -3,1 C 0,0 C 72 % 77 % 0 % 1030,1 hPa 0,0 l/m 0,0 km/h (0 Bft) N 0,00 h 0,0 UV-I -4,5 C -3,1 C 0,0 km/h (0 Bft)
03.03.2011 21:00 -0,9 C 3,4 C -1,9 C -1,9 C -3,9 C 0,0 C 77 % 80 % 0 % 1030,1 hPa 0,0 l/m 0,1 km/h (0 Bft) N 0,00 h 0,0 UV-I -4,5 C -3,9 C 0,2 km/h (0 Bft)
03.03.2011 22:00 -1,4 C 3,6 C -2,4 C -2,4 C -4,4 C 0,0 C 79 % 83 % 0 % 1031,1 hPa 0,0 l/m 0,3 km/h (0 Bft) N 0,00 h 0,0 UV-I -4,6 C -4,4 C 0,3 km/h (0 Bft)
03.03.2011 23:00 -1,8 C 3,7 C -2,7 C -2,8 C -4,6 C 0,0 C 82 % 85 % 0 % 1031,4 hPa 0,0 l/m 0,2 km/h (0 Bft) N 0,00 h 0,0 UV-I -4,6 C -4,6 C 0,3 km/h (0 Bft)
04.03.2011 00:00 -2,3 C 3,7 C -3,0 C -3,1 C -4,8 C 0,0 C 83 % 86 % 0 % 1031,0 hPa 0,0 l/m 0,0 km/h (0 Bft) N 0,00 h 0,0 UV-I -4,7 C -4,8 C 0,0 km/h (0 Bft)
04.03.2011 01:00 -2,5 C 3,7 C -3,2 C -3,3 C -5,0 C 0,0 C 84 % 86 % 0 % 1030,8 hPa 0,0 l/m 0,0 km/h (0 Bft) N 0,00 h 0,0 UV-I -4,8 C -5,0 C 0,0 km/h (0 Bft)
04.03.2011 02:00 -2,8 C 3,6 C -3,5 C -3,6 C -5,2 C 0,0 C 85 % 87 % 0 % 1030,6 hPa 0,0 l/m 0,0 km/h (0 Bft) N 0,00 h 0,0 UV-I -5,0 C -5,2 C 0,0 km/h (0 Bft)
04.03.2011 03:00 -3,1 C 3,6 C -3,7 C -3,8 C -5,2 C 0,0 C 86 % 88 % 0 % 1030,2 hPa 0,0 l/m 0,0 km/h (0 Bft) N 0,00 h 0,0 UV-I -5,1 C -5,2 C 0,0 km/h (0 Bft)
04.03.2011 04:00 -3,5 C 3,6 C -4,1 C -4,3 C -5,9 C 0,0 C 86 % 88 % 0 % 1029,9 hPa 0,0 l/m 0,0 km/h (0 Bft) N 0,00 h 0,0 UV-I -5,5 C -5,9 C 0,0 km/h (0 Bft)
04.03.2011 05:00 -3,8 C 3,6 C -4,4 C -4,7 C -6,5 C 0,0 C 86 % 88 % 0 % 1029,9 hPa 0,0 l/m 0,0 km/h (0 Bft) N 0,00 h 0,0 UV-I -5,8 C -6,5 C 0,0 km/h (0 Bft)
04.03.2011 06:00 -4,1 C 3,6 C -4,6 C -5,0 C -6,8 C 0,0 C 86 % 88 % 0 % 1030,2 hPa 0,0 l/m 0,0 km/h (0 Bft) N 0,00 h 0,0 UV-I -6,1 C -6,8 C 0,0 km/h (0 Bft)
04.03.2011 07:00 -3,8 C 3,6 C -4,5 C -4,4 C -5,6 C 0,0 C 87 % 88 % 0 % 1030,3 hPa 0,0 l/m 0,0 km/h (0 Bft) N 0,00 h 0,0 UV-I -5,7 C -5,6 C 0,0 km/h (0 Bft)
04.03.2011 08:00 -2,7 C 3,6 C -4,5 C -2,9 C -3,4 C 0,0 C 86 % 88 % 0 % 1030,2 hPa 0,0 l/m 0,0 km/h (0 Bft) N 0,00 h 0,0 UV-I -4,7 C -3,4 C 0,0 km/h (0 Bft)
04.03.2011 09:00 -0,9 C 3,3 C -4,5 C -0,2 C -0,3 C 0,8 C 86 % 88 % 22 % 1030,2 hPa 0,0 l/m 0,8 km/h (0 Bft) NO 0,00 h 0,1 UV-I -3,0 C -0,3 C 1,2 km/h (1 Bft)
04.03.2011 10:00 1,0 C 3,2 C -0,1 C 2,5 C 2,5 C 1,6 C 82 % 85 % 41 % 1030,3 hPa 0,0 l/m 1,9 km/h (1 Bft) NO 0,00 h 0,4 UV-I -1,7 C 2,5 C 2,3 km/h (1 Bft)
04.03.2011 11:00 2,5 C 3,1 C 2,0 C 7,9 C 7,9 C 5,3 C 78 % 80 % 99 % 1030,1 hPa 0,0 l/m 1,5 km/h (1 Bft) N-NO 1,00 h 0,6 UV-I -0,9 C 7,9 C 2,3 km/h (1 Bft)
04.03.2011 12:00 3,6 C 3,1 C 3,3 C 12,0 C 12,0 C 8,4 C 75 % 77 % 100 % 1029,3 hPa 0,0 l/m 1,7 km/h (1 Bft) N-NO 1,00 h 0,9 UV-I -0,4 C 12,0 C 2,0 km/h (1 Bft)
04.03.2011 13:00 4,3 C 3,1 C 4,5 C 11,8 C 11,8 C 7,5 C 74 % 74 % 100 % 1028,8 hPa 0,0 l/m 3,8 km/h (1 Bft) NO 1,00 h 0,8 UV-I 0,0 C 11,8 C 4,7 km/h (1 Bft)
04.03.2011 14:00 5,3 C 3,2 C 5,1 C 14,2 C 14,2 C 8,9 C 70 % 73 % 100 % 1028,8 hPa 0,0 l/m 3,5 km/h (1 Bft) W-SW 1,00 h 0,5 UV-I 0,2 C 14,2 C 4,0 km/h (1 Bft)
04.03.2011 15:00 5,9 C 3,1 C 8,5 C 14,1 C 14,1 C 8,2 C 68 % 60 % 100 % 1028,8 hPa 0,0 l/m 3,1 km/h (1 Bft) SW 1,00 h 0,2 UV-I 0,4 C 14,1 C 4,1 km/h (1 Bft)
04.03.2011 16:00 6,2 C 3,1 C 6,5 C 12,4 C 12,4 C 6,2 C 67 % 64 % 100 % 1028,8 hPa 0,0 l/m 2,1 km/h (1 Bft) SO 1,00 h 0,1 UV-I 0,5 C 12,4 C 2,7 km/h (1 Bft)
04.03.2011 17:00 5,1 C 3,1 C 5,3 C 7,4 C 7,4 C 2,4 C 69 % 68 % 58 % 1027,9 hPa 0,0 l/m 0,5 km/h (0 Bft) O-SO 0,75 h 0,0 UV-I -0,2 C 7,4 C 0,7 km/h (0 Bft)
04.03.2011 18:00 3,2 C 3,3 C 5,2 C 2,4 C 0,7 C 0,0 C 73 % 68 % 0 % 1026,8 hPa 0,0 l/m 0,0 km/h (0 Bft) N 0,00 h 0,0 UV-I -1,1 C 0,7 C 0,0 km/h (0 Bft)
04.03.2011 19:00 1,3 C 3,6 C 5,2 C 0,2 C -2,1 C 0,0 C 78 % 68 % 0 % 1027,0 hPa 0,0 l/m 0,0 km/h (0 Bft) N 0,00 h 0,0 UV-I -2,1 C -2,1 C 0,0 km/h (0 Bft)
04.03.2011 20:00 0,1 C 3,7 C 5,2 C -1,0 C -3,3 C 0,0 C 81 % 68 % 0 % 1027,4 hPa 0,0 l/m 0,0 km/h (0 Bft) N 0,00 h 0,0 UV-I -2,7 C -3,3 C 0,0 km/h (0 Bft)
04.03.2011 21:00 -0,7 C 3,7 C 5,2 C -1,8 C -3,9 C 0,0 C 83 % 68 % 0 % 1027,0 hPa 0,0 l/m 0,0 km/h (0 Bft) N 0,00 h 0,0 UV-I -3,2 C -3,9 C 0,0 km/h (0 Bft)
04.03.2011 22:00 -1,3 C 3,7 C 5,2 C -2,3 C -4,3 C 0,0 C 85 % 68 % 0 % 1026,9 hPa 0,0 l/m 0,0 km/h (0 Bft) N 0,00 h 0,0 UV-I -3,6 C -4,3 C 0,0 km/h (0 Bft)
04.03.2011 23:00 -1,8 C 3,5 C 5,2 C -2,7 C -4,5 C 0,0 C 85 % 68 % 0 % 1026,5 hPa 0,0 l/m 0,0 km/h (0 Bft) N 0,00 h 0,0 UV-I -4,0 C -4,5 C 0,0 km/h (0 Bft)
05.03.2011 00:00 -2,2 C 3,5 C 5,2 C -3,1 C -4,8 C 0,0 C 86 % 68 % 0 % 1026,3 hPa 0,0 l/m 0,0 km/h (0 Bft) N 0,00 h 0,0 UV-I -4,2 C -4,8 C 0,0 km/h (0 Bft)
05.03.2011 01:00 -2,5 C 3,6 C 5,2 C -3,3 C -5,0 C 0,0 C 87 % 68 % 0 % 1025,2 hPa 0,0 l/m 0,0 km/h (0 Bft) N 0,00 h 0,0 UV-I -4,4 C -5,0 C 0,0 km/h (0 Bft)
05.03.2011 02:00 -2,9 C 3,6 C 2,3 C -3,8 C -5,5 C 0,0 C 87 % 75 % 0 % 1024,8 hPa 0,0 l/m 0,0 km/h (0 Bft) N 0,00 h 0,0 UV-I -4,7 C -5,5 C 0,0 km/h (0 Bft)
05.03.2011 03:00 -3,2 C 3,6 C -3,7 C -3,9 C -5,4 C 0,0 C 87 % 89 % 0 % 1024,3 hPa 0,0 l/m 0,1 km/h (0 Bft) N 0,00 h 0,0 UV-I -5,0 C -5,4 C 0,1 km/h (0 Bft)
05.03.2011 04:00 -3,3 C 3,6 C -3,9 C -4,1 C -5,6 C 0,0 C 88 % 89 % 0 % 1024,3 hPa 0,0 l/m 0,0 km/h (0 Bft) N 0,00 h 0,0 UV-I -5,0 C -5,6 C 0,0 km/h (0 Bft)
05.03.2011 05:00 -3,6 C 3,6 C -4,2 C -4,5 C -6,2 C 0,0 C 88 % 89 % 0 % 1024,3 hPa 0,0 l/m 0,0 km/h (0 Bft) N 0,00 h 0,0 UV-I -5,3 C -6,2 C 0,0 km/h (0 Bft)
05.03.2011 06:00 -3,9 C 3,6 C -4,4 C -4,8 C -6,6 C 0,0 C 87 % 89 % 0 % 1023,5 hPa 0,0 l/m 0,0 km/h (0 Bft) N 0,00 h 0,0 UV-I -5,7 C -6,6 C 0,0 km/h (0 Bft)
05.03.2011 07:00 -3,5 C 3,6 C -4,0 C -4,1 C -5,3 C 0,0 C 87 % 89 % 0 % 1023,2 hPa 0,0 l/m 0,0 km/h (0 Bft) N 0,00 h 0,0 UV-I -5,3 C -5,3 C 0,0 km/h (0 Bft)
05.03.2011 08:00 -2,0 C 3,7 C -1,8 C -2,2 C -2,6 C 0,0 C 88 % 89 % 0 % 1023,2 hPa 0,0 l/m 0,1 km/h (0 Bft) N 0,00 h 0,0 UV-I -3,7 C -2,6 C 0,6 km/h (0 Bft)
05.03.2011 09:00 -0,0 C 3,5 C -0,3 C 0,1 C 0,0 C 0,2 C 87 % 88 % 4 % 1023,4 hPa 0,0 l/m 1,3 km/h (1 Bft) N-NO 0,00 h 0,2 UV-I -1,9 C 0,0 C 1,7 km/h (1 Bft)
05.03.2011 10:00 2,0 C 3,2 C 1,4 C 1,4 C 0,0 C 0,0 C 80 % 82 % 0 % 1023,2 hPa 0,0 l/m 6,2 km/h (2 Bft) NO 0,00 h 0,4 UV-I -1,1 C -1,8 C 7,8 km/h (2 Bft)
05.03.2011 11:00 3,3 C 3,1 C 2,8 C 4,3 C 4,2 C 1,0 C 74 % 76 % 26 % 1022,4 hPa 0,0 l/m 5,0 km/h (1 Bft) N-NO 0,08 h 0,6 UV-I -0,9 C 3,2 C 6,5 km/h (2 Bft)
05.03.2011 12:00 4,1 C 3,1 C 3,3 C 7,1 C 7,1 C 2,9 C 68 % 74 % 72 % 1021,9 hPa 0,0 l/m 5,4 km/h (1 Bft) N-NO 0,42 h 0,7 UV-I -1,3 C 6,3 C 6,7 km/h (2 Bft)
05.03.2011 13:00 4,6 C 3,1 C 3,3 C 9,5 C 9,5 C 4,9 C 65 % 74 % 99 % 1021,7 hPa 0,0 l/m 6,0 km/h (2 Bft) NO 1,00 h 0,7 UV-I -1,5 C 9,0 C 7,4 km/h (2 Bft)
05.03.2011 14:00 5,6 C 3,2 C 6,0 C 11,0 C 11,0 C 5,5 C 64 % 65 % 100 % 1021,4 hPa 0,0 l/m 5,5 km/h (1 Bft) NO 1,00 h 0,5 UV-I -0,7 C 10,7 C 6,8 km/h (2 Bft)
05.03.2011 15:00 5,8 C 3,1 C 8,8 C 9,7 C 9,7 C 3,9 C 66 % 57 % 86 % 1020,7 hPa 0,0 l/m 6,0 km/h (2 Bft) N-NO 0,67 h 0,2 UV-I 0,0 C 9,2 C 6,6 km/h (2 Bft)
05.03.2011 16:00 5,6 C 3,2 C 5,6 C 7,0 C 6,9 C 1,4 C 71 % 71 % 38 % 1020,4 hPa 0,0 l/m 5,7 km/h (1 Bft) NO 0,33 h 0,1 UV-I 0,8 C 6,2 C 6,8 km/h (2 Bft)
05.03.2011 17:00 4,4 C 3,3 C 3,9 C 4,9 C 4,8 C 0,6 C 76 % 78 % 15 % 1020,5 hPa 0,0 l/m 2,2 km/h (1 Bft) NO 0,42 h 0,0 UV-I 0,5 C 4,7 C 2,0 km/h (1 Bft)
05.03.2011 18:00 3,4 C 3,5 C 2,7 C 3,1 C 2,6 C 0,0 C 80 % 83 % 0 % 1021,0 hPa 0,0 l/m 1,3 km/h (1 Bft) S-SO 0,00 h 0,0 UV-I 0,3 C 2,6 C 2,2 km/h (1 Bft)
05.03.2011 19:00 2,3 C 3,4 C 1,6 C 1,9 C 1,0 C 0,0 C 79 % 83 % 0 % 1021,8 hPa 0,0 l/m 2,0 km/h (1 Bft) O-NO 0,00 h 0,0 UV-I -0,9 C 1,0 C 2,1 km/h (1 Bft)
05.03.2011 20:00 1,6 C 3,5 C 0,8 C 1,2 C 0,3 C 0,0 C 81 % 85 % 0 % 1021,2 hPa 0,0 l/m 1,6 km/h (1 Bft) NO 0,00 h 0,0 UV-I -1,3 C 0,3 C 2,2 km/h (1 Bft)
05.03.2011 21:00 1,7 C 3,5 C 1,1 C 1,4 C 0,8 C 0,0 C 82 % 85 % 0 % 1021,8 hPa 0,0 l/m 2,1 km/h (1 Bft) NO 0,00 h 0,0 UV-I -1,1 C 0,8 C 2,6 km/h (1 Bft)
05.03.2011 22:00 1,9 C 3,4 C 1,6 C 1,5 C 0,8 C 0,0 C 83 % 86 % 0 % 1022,1 hPa 0,0 l/m 3,9 km/h (1 Bft) NO 0,00 h 0,0 UV-I -0,6 C 0,6 C 4,2 km/h (1 Bft)
05.03.2011 23:00 1,9 C 3,4 C 1,5 C 1,5 C 0,6 C 0,0 C 82 % 84 % 0 % 1022,0 hPa 0,0 l/m 4,0 km/h (1 Bft) NO 0,00 h 0,0 UV-I -0,8 C 0,2 C 4,9 km/h (1 Bft)
06.03.2011 00:00 1,7 C 3,5 C 1,2 C 1,3 C 0,5 C 0,0 C 81 % 84 % 0 % 1022,4 hPa 0,0 l/m 3,1 km/h (1 Bft) NO 0,00 h 0,0 UV-I -1,2 C 0,5 C 3,5 km/h (1 Bft)
06.03.2011 01:00 1,2 C 3,5 C 0,7 C 0,8 C -0,1 C 0,0 C 82 % 85 % 0 % 1022,2 hPa 0,0 l/m 1,4 km/h (1 Bft) N-NO 0,00 h 0,0 UV-I -1,5 C -0,1 C 2,3 km/h (1 Bft)
06.03.2011 02:00 0,8 C 3,5 C 0,3 C 0,3 C -0,7 C 0,0 C 81 % 84 % 0 % 1021,5 hPa 0,0 l/m 1,2 km/h (1 Bft) S-SO 0,00 h 0,0 UV-I -2,1 C -0,7 C 1,2 km/h (1 Bft)
06.03.2011 03:00 0,1 C 3,6 C -0,5 C -0,6 C -1,9 C 0,0 C 82 % 85 % 0 % 1021,7 hPa 0,0 l/m 0,6 km/h (0 Bft) W-SW 0,00 h 0,0 UV-I -2,6 C -1,9 C 0,9 km/h (0 Bft)
06.03.2011 04:00 -0,5 C 3,8 C -1,1 C -1,3 C -2,9 C 0,0 C 84 % 86 % 0 % 1021,9 hPa 0,0 l/m 0,5 km/h (0 Bft) N 0,00 h 0,0 UV-I -3,0 C -2,9 C 1,1 km/h (1 Bft)
06.03.2011 05:00 -0,5 C 3,7 C -1,0 C -1,0 C -2,1 C 0,0 C 84 % 87 % 0 % 1021,8 hPa 0,0 l/m 0,3 km/h (0 Bft) NO 0,00 h 0,0 UV-I -2,9 C -2,1 C 0,5 km/h (0 Bft)
06.03.2011 06:00 -0,2 C 3,6 C -0,6 C -0,6 C -1,3 C 0,0 C 84 % 87 % 0 % 1022,3 hPa 0,0 l/m 0,4 km/h (0 Bft) N 0,00 h 0,0 UV-I -2,6 C -1,3 C 0,6 km/h (0 Bft)
06.03.2011 07:00 -0,0 C 3,6 C -0,5 C -0,3 C -1,0 C 0,0 C 83 % 86 % 0 % 1022,5 hPa 0,0 l/m 1,1 km/h (1 Bft) O-NO 0,00 h 0,0 UV-I -2,5 C -1,0 C 2,0 km/h (1 Bft)
06.03.2011 08:00 0,3 C 3,4 C 0,3 C 0,1 C -0,3 C 0,0 C 82 % 82 % 0 % 1023,2 hPa 0,0 l/m 2,3 km/h (1 Bft) NO 0,00 h 0,1 UV-I -2,4 C -0,3 C 3,0 km/h (1 Bft)
06.03.2011 09:00 1,1 C 3,2 C 0,2 C 1,5 C 1,4 C 0,5 C 78 % 81 % 12 % 1024,0 hPa 0,0 l/m 2,0 km/h (1 Bft) N-NO 0,00 h 0,2 UV-I -2,3 C 1,4 C 2,6 km/h (1 Bft)
06.03.2011 10:00 1,8 C 3,2 C 0,7 C 2,1 C 1,7 C 0,4 C 75 % 79 % 11 % 1024,7 hPa 0,0 l/m 3,2 km/h (1 Bft) N-NO 0,00 h 0,5 UV-I -2,2 C 1,6 C 4,5 km/h (1 Bft)
06.03.2011 11:00 2,5 C 3,1 C 1,3 C 5,6 C 5,6 C 3,1 C 71 % 76 % 76 % 1025,2 hPa 0,0 l/m 2,9 km/h (1 Bft) N-NO 0,25 h 0,7 UV-I -2,1 C 5,4 C 3,6 km/h (1 Bft)
06.03.2011 12:00 3,2 C 3,1 C 2,3 C 8,8 C 8,8 C 5,6 C 67 % 70 % 100 % 1025,3 hPa 0,0 l/m 4,4 km/h (1 Bft) NO 1,00 h 1,1 UV-I -2,4 C 8,5 C 5,4 km/h (1 Bft)
06.03.2011 13:00 4,1 C 3,1 C 3,5 C 9,1 C 9,1 C 5,0 C 62 % 65 % 96 % 1025,0 hPa 0,0 l/m 3,1 km/h (1 Bft) NO 0,83 h 0,8 UV-I -2,5 C 9,0 C 3,7 km/h (1 Bft)
06.03.2011 14:00 4,5 C 3,1 C 4,1 C 8,8 C 8,8 C 4,3 C 50 % 60 % 87 % 1025,7 hPa 0,0 l/m 3,7 km/h (1 Bft) W-SW 0,67 h 0,5 UV-I -4,9 C 8,8 C 5,2 km/h (1 Bft)
06.03.2011 15:00 4,5 C 3,1 C 5,6 C 6,9 C 6,9 C 2,4 C 45 % 43 % 56 % 1026,0 hPa 0,0 l/m 2,9 km/h (1 Bft) N-NO 0,25 h 0,2 UV-I -6,2 C 6,9 C 4,9 km/h (1 Bft)
06.03.2011 16:00 4,9 C 3,1 C 4,6 C 10,2 C 10,2 C 5,4 C 43 % 43 % 93 % 1026,8 hPa 0,0 l/m 4,4 km/h (1 Bft) SO 0,92 h 0,1 UV-I -6,7 C 10,2 C 5,1 km/h (1 Bft)
06.03.2011 17:00 3,6 C 3,2 C 3,4 C 6,0 C 5,7 C 2,5 C 45 % 46 % 54 % 1027,8 hPa 0,0 l/m 2,4 km/h (1 Bft) SO 0,67 h 0,0 UV-I -7,0 C 5,6 C 2,7 km/h (1 Bft)
06.03.2011 18:00 1,8 C 3,1 C 0,7 C 0,7 C -1,6 C 0,0 C 50 % 55 % 0 % 1028,5 hPa 0,0 l/m 0,0 km/h (0 Bft) N 0,00 h 0,0 UV-I -7,5 C -1,6 C 0,3 km/h (0 Bft)
06.03.2011 19:00 0,3 C 3,2 C -1,2 C -0,9 C -3,4 C 0,0 C 56 % 64 % 0 % 1028,8 hPa 0,0 l/m 0,0 km/h (0 Bft) N 0,00 h 0,0 UV-I -7,4 C -3,4 C 0,0 km/h (0 Bft)
06.03.2011 20:00 -0,5 C 3,2 C -1,8 C -1,4 C -3,3 C 0,0 C 61 % 70 % 0 % 1029,7 hPa 0,0 l/m 0,6 km/h (0 Bft) SW 0,00 h 0,0 UV-I -7,1 C -3,3 C 1,0 km/h (0 Bft)
06.03.2011 21:00 -1,0 C 3,2 C -1,9 C -1,9 C -3,8 C 0,0 C 61 % 69 % 0 % 1030,1 hPa 0,0 l/m 0,2 km/h (0 Bft) N 0,00 h 0,0 UV-I -7,5 C -3,8 C 0,0 km/h (0 Bft)
06.03.2011 22:00 -1,8 C 3,2 C -2,8 C -2,9 C -5,2 C 0,0 C 66 % 72 % 0 % 1030,3 hPa 0,0 l/m 0,0 km/h (0 Bft) N 0,00 h 0,0 UV-I -7,3 C -5,2 C 0,0 km/h (0 Bft)
06.03.2011 23:00 -2,6 C 3,2 C -3,6 C -3,9 C -6,6 C 0,0 C 71 % 76 % 0 % 1031,6 hPa 0,0 l/m 0,0 km/h (0 Bft) N 0,00 h 0,0 UV-I -7,1 C -6,6 C 0,0 km/h (0 Bft)
Min-Datum _ 04.03.11 28.02.11 04.03.11 04.03.11 04.03.11 28.02.11 02.03.11 02.03.11 28.02.11 28.02.11 - 28.02.11 - - 28.02.11 06.03.11 01.03.11 28.02.11
_ Min-Zeit 06:31 10:09 06:36 06:26 06:26 00:00 15:46 15:11 00:00 00:15 - 00:00 - - 00:00 18:41 07:11 00:00
Minimum _ -4,2 C 2,3 C -4,7 C -5,1 C -7,0 C 0,0 C 39 % 35 % 0 % 1017,6 hPa - 0,0 km/h (0 Bft) - - 0,0 UV-I -7,8 C -9,1 C 0,0 km/h (0 Bft)
Max-Datum _ 28.02.11 01.03.11 28.02.11 28.02.11 28.02.11 04.03.11 01.03.11 28.02.11 28.02.11 01.03.11 28.02.11 02.03.11 - 28.02.11 06.03.11 28.02.11 28.02.11 02.03.11
_ Max-Zeit 15:35 08:16 15:09 14:30 14:30 14:06 02:41 04:55 11:09 22:31 00:00 20:11 - 11:09 12:01 14:09 14:30 14:31
Maximum _ 7,9 C 3,8 C 11,5 C 16,4 C 16,4 C 10,2 C 90 % 92 % 100 % 1033,8 hPa 0,0 l/m 14,2 km/h
W-SW (3 Bft)
- 0,15 h 1,2 UV-I 3,0 C 16,4 C 21,9 km/h
W-SW (4 Bft)
Durchschnitt _ 0,8 C 3,3 C 0,7 C 1,7 C 0,7 C 1,4 C 76 % 77 % 24 % 1027,5 hPa #0,0 l/m 2,3 km/h (1 Bft) SW #37:05 h 0,4 UV-I -3,1 C 0,4 C 2,9 km/h (1 Bft)
2013 www.wetterstation-wechselburg.de